createdAt,value
2022-09-10T00:00:28.556Z,0.57
2022-09-10T00:02:56.022Z,0.55
2022-09-10T00:05:23.492Z,0.70
2022-09-10T00:07:50.918Z,0.70
2022-09-10T00:10:19.872Z,1.00
2022-09-10T00:12:48.099Z,0.90
2022-09-10T00:15:15.602Z,1.10
2022-09-10T00:17:43.014Z,0.63
2022-09-10T00:20:11.198Z,0.97
2022-09-10T00:22:38.588Z,0.82
2022-09-10T00:25:08.469Z,0.90
2022-09-10T00:27:37.782Z,1.10
2022-09-10T00:30:06.409Z,1.10
2022-09-10T00:32:34.728Z,1.03
2022-09-10T00:35:02.131Z,1.40
2022-09-10T00:37:30.796Z,1.00
2022-09-10T00:39:59.140Z,1.23
2022-09-10T00:42:26.568Z,1.83
2022-09-10T00:45:05.467Z,1.43
2022-09-10T00:47:36.470Z,1.50
2022-09-10T00:50:16.142Z,1.70
2022-09-10T00:52:44.609Z,1.30
2022-09-10T00:55:13.366Z,1.40
2022-09-10T00:57:42.070Z,1.40
2022-09-10T01:00:14.182Z,1.40
2022-09-10T01:02:41.820Z,2.38
2022-09-10T01:05:11.689Z,1.30
2022-09-10T01:07:39.320Z,1.70
2022-09-10T01:10:11.501Z,1.40
2022-09-10T01:13:21.595Z,1.20
2022-09-10T01:15:58.681Z,1.15
2022-09-10T01:18:38.969Z,1.20
2022-09-10T01:21:16.640Z,1.10
2022-09-10T01:24:14.493Z,1.00
2022-09-10T01:27:15.479Z,0.73
2022-09-10T01:29:49.876Z,0.80
2022-09-10T01:32:24.954Z,0.80
2022-09-10T01:35:00.698Z,0.60
2022-09-10T01:37:31.277Z,0.80
2022-09-10T01:40:01.046Z,0.82
2022-09-10T01:42:29.309Z,0.80
2022-09-10T01:44:58.987Z,0.90
2022-09-10T01:47:50.995Z,0.70
2022-09-10T01:50:25.583Z,0.70
2022-09-10T01:53:07.197Z,0.50
2022-09-10T01:55:44.203Z,0.60
2022-09-10T01:58:22.161Z,0.57
2022-09-10T02:00:59.975Z,0.57
2022-09-10T02:03:29.430Z,0.53
2022-09-10T02:05:58.799Z,0.70
2022-09-10T02:08:30.991Z,0.63
2022-09-10T02:11:00.675Z,0.47
2022-09-10T02:13:30.632Z,0.50
2022-09-10T02:16:00.309Z,0.60
2022-09-10T02:18:28.229Z,0.60
2022-09-10T02:20:58.353Z,0.70
2022-09-10T02:23:31.385Z,1.10
2022-09-10T02:25:59.384Z,0.70
2022-09-10T02:28:27.299Z,1.23
2022-09-10T02:30:54.976Z,1.20
2022-09-10T02:33:23.761Z,1.40
2022-09-10T02:35:51.949Z,1.52
2022-09-10T02:38:19.723Z,1.52
2022-09-10T02:40:48.912Z,1.30
2022-09-10T02:43:17.164Z,1.75
2022-09-10T02:45:45.272Z,1.17
2022-09-10T02:48:12.939Z,1.50
2022-09-10T02:50:41.811Z,1.05
2022-09-10T02:53:09.222Z,1.43
2022-09-10T02:55:36.628Z,1.58
2022-09-10T02:58:04.095Z,1.40
2022-09-10T03:00:31.807Z,1.42
2022-09-10T03:03:02.910Z,1.20
2022-09-10T03:05:30.675Z,0.80
2022-09-10T03:08:00.290Z,0.80
2022-09-10T03:10:28.224Z,0.90
2022-09-10T03:12:55.638Z,0.90
2022-09-10T03:15:23.086Z,0.60
2022-09-10T03:17:50.797Z,0.70
2022-09-10T03:20:18.832Z,0.55
2022-09-10T03:22:47.529Z,0.70
2022-09-10T03:25:17.139Z,0.55
2022-09-10T03:27:44.558Z,0.73
2022-09-10T03:30:12.741Z,0.90
2022-09-10T03:32:40.206Z,0.65
2022-09-10T03:35:08.403Z,1.10
2022-09-10T03:37:36.262Z,1.00
2022-09-10T03:40:05.481Z,0.93
2022-09-10T03:42:34.428Z,1.03
2022-09-10T03:45:01.860Z,1.02
2022-09-10T03:47:29.294Z,1.08
2022-09-10T03:49:56.702Z,1.25
2022-09-10T03:52:24.184Z,1.20
2022-09-10T03:54:51.631Z,0.87
2022-09-10T03:57:19.254Z,0.90
2022-09-10T03:59:48.006Z,1.27
2022-09-10T04:02:15.490Z,1.17
2022-09-10T04:04:42.939Z,0.98
2022-09-10T04:07:11.067Z,1.70
2022-09-10T04:09:38.544Z,1.27
2022-09-10T04:12:06.402Z,1.33
2022-09-10T04:14:34.311Z,1.52
2022-09-10T04:17:03.244Z,1.80
2022-09-10T04:19:30.842Z,1.37
2022-09-10T04:21:58.262Z,1.70
2022-09-10T04:24:25.743Z,1.63
2022-09-10T04:26:53.166Z,1.92
2022-09-10T04:29:20.802Z,2.20
2022-09-10T04:31:48.225Z,2.23
2022-09-10T04:34:17.448Z,2.30
2022-09-10T04:36:44.956Z,1.90
2022-09-10T04:39:14.368Z,2.03
2022-09-10T04:41:41.780Z,2.45
2022-09-10T04:44:09.291Z,1.90
2022-09-10T04:46:36.803Z,1.88
2022-09-10T04:49:04.339Z,1.83
2022-09-10T04:51:33.294Z,2.20
2022-09-10T04:54:01.651Z,1.92
2022-09-10T04:56:29.250Z,1.67
2022-09-10T04:58:56.918Z,1.50
2022-09-10T05:01:24.945Z,1.42
2022-09-10T05:03:52.422Z,1.27
2022-09-10T05:06:20.196Z,1.92
2022-09-10T05:08:48.955Z,1.60
2022-09-10T05:11:19.511Z,1.63
2022-09-10T05:13:47.230Z,1.60
2022-09-10T05:16:15.067Z,1.75
2022-09-10T05:18:42.498Z,1.50
2022-09-10T05:21:10.222Z,1.60
2022-09-10T05:23:39.384Z,1.52
2022-09-10T05:26:08.368Z,1.30
2022-09-10T05:28:35.758Z,1.20
2022-09-10T05:31:03.287Z,1.30
2022-09-10T05:33:30.892Z,1.20
2022-09-10T05:35:58.278Z,1.33
2022-09-10T05:38:26.445Z,1.20
2022-09-10T05:40:53.898Z,1.20
2022-09-10T05:43:22.654Z,1.17
2022-09-10T05:45:51.759Z,1.00
2022-09-10T05:48:19.183Z,1.30
2022-09-10T05:50:46.675Z,1.00
2022-09-10T05:53:14.583Z,1.00
2022-09-10T05:55:43.780Z,1.08
2022-09-10T05:58:13.444Z,0.90
2022-09-10T06:00:43.878Z,1.08
2022-09-10T06:03:11.768Z,1.00
2022-09-10T06:05:39.271Z,0.90
2022-09-10T06:08:08.748Z,0.80
2022-09-10T06:10:36.797Z,0.80
2022-09-10T06:13:04.232Z,0.80
2022-09-10T06:15:34.721Z,1.08
2022-09-10T06:18:03.825Z,0.77
2022-09-10T06:20:31.271Z,0.57
2022-09-10T06:22:58.881Z,0.60
2022-09-10T06:25:26.307Z,0.52
2022-09-10T06:27:53.723Z,0.50
2022-09-10T06:30:21.591Z,0.43
2022-09-10T06:32:49.039Z,0.30
2022-09-10T06:35:18.000Z,0.33
2022-09-10T06:37:45.410Z,0.30
2022-09-10T06:40:13.183Z,0.40
2022-09-10T06:42:41.026Z,0.20
2022-09-10T06:45:09.318Z,0.20
2022-09-10T06:50:26.444Z,0.30
2022-09-10T06:52:54.066Z,1.27
2022-09-10T06:55:21.491Z,0.30
2022-09-10T06:57:48.916Z,0.20
2022-09-10T07:00:17.385Z,0.40
2022-09-10T07:02:44.807Z,0.40
2022-09-10T07:05:12.245Z,0.50
2022-09-10T07:07:41.015Z,0.40
2022-09-10T07:10:09.342Z,0.47
2022-09-10T07:12:36.782Z,0.50
2022-09-10T07:15:04.527Z,0.47
2022-09-10T07:17:35.273Z,1.08
2022-09-10T07:20:03.240Z,0.80
2022-09-10T07:22:31.006Z,1.20
2022-09-10T07:25:00.091Z,1.30
2022-09-10T07:27:27.544Z,1.20
2022-09-10T07:29:54.974Z,1.42
2022-09-10T07:32:22.462Z,1.30
2022-09-10T07:34:49.946Z,1.15
2022-09-10T07:37:17.395Z,1.27
2022-09-10T07:39:45.874Z,1.25
2022-09-10T07:42:14.696Z,1.45
2022-09-10T07:44:42.143Z,1.60
2022-09-10T07:47:09.616Z,1.50
2022-09-10T07:49:37.045Z,1.50
2022-09-10T07:52:04.870Z,1.30
2022-09-10T07:54:32.322Z,1.80
2022-09-10T07:56:59.740Z,1.73
2022-09-10T07:59:28.507Z,1.60
2022-09-10T08:01:55.969Z,1.27
2022-09-10T08:04:24.320Z,1.40
2022-09-10T08:06:52.020Z,1.58
2022-09-10T08:09:20.192Z,1.90
2022-09-10T08:11:47.587Z,1.70
2022-09-10T08:14:15.075Z,2.03
2022-09-10T08:16:44.635Z,1.90
2022-09-10T08:19:13.670Z,2.10
2022-09-10T08:21:41.125Z,1.83
2022-09-10T08:24:08.557Z,2.20
2022-09-10T08:26:35.966Z,2.13
2022-09-10T08:29:03.988Z,1.52
2022-09-10T08:31:31.393Z,2.25
2022-09-10T08:34:00.126Z,2.05
2022-09-10T08:36:27.651Z,2.00
2022-09-10T08:39:00.710Z,1.70
2022-09-10T08:41:42.129Z,1.70
2022-09-10T08:44:16.081Z,1.38
2022-09-10T08:46:48.280Z,1.77
2022-09-10T08:49:26.816Z,1.40
2022-09-10T08:51:57.528Z,1.90
2022-09-10T08:54:28.845Z,1.90
2022-09-10T08:57:00.625Z,2.20
2022-09-10T08:59:34.302Z,2.40
2022-09-10T09:02:07.184Z,2.38
2022-09-10T09:04:44.839Z,1.93
2022-09-10T09:07:14.685Z,2.40
2022-09-10T09:09:42.965Z,1.88
2022-09-10T09:12:19.519Z,2.20
2022-09-10T09:14:56.645Z,2.00
2022-09-10T09:17:37.567Z,1.60
2022-09-10T09:20:15.733Z,2.08
2022-09-10T09:22:51.801Z,2.40
2022-09-10T09:25:24.478Z,2.03
2022-09-10T09:27:56.378Z,2.00
2022-09-10T09:30:26.972Z,2.67
2022-09-10T09:32:58.324Z,2.47
2022-09-10T09:35:32.197Z,2.60
2022-09-10T09:38:13.673Z,2.13
2022-09-10T09:40:46.827Z,3.00
2022-09-10T09:43:23.843Z,2.27
2022-09-10T09:45:53.297Z,2.42
2022-09-10T09:48:24.304Z,2.50
2022-09-10T09:50:56.582Z,3.30
2022-09-10T09:53:26.091Z,2.42
2022-09-10T09:55:55.945Z,2.70
2022-09-10T09:58:37.329Z,2.95
2022-09-10T10:01:14.362Z,3.10
2022-09-10T10:03:50.134Z,2.60
2022-09-10T10:06:21.710Z,2.70
2022-09-10T10:08:57.013Z,2.50
2022-09-10T10:11:41.505Z,2.80
2022-09-10T10:14:21.249Z,2.90
2022-09-10T10:16:49.398Z,2.75
2022-09-10T10:19:29.714Z,3.33
2022-09-10T10:21:59.972Z,3.10
2022-09-10T10:24:32.530Z,2.85
2022-09-10T10:27:00.296Z,2.40
2022-09-10T10:29:28.529Z,2.25
2022-09-10T10:31:57.362Z,2.90
2022-09-10T10:34:47.369Z,2.40
2022-09-10T10:37:23.546Z,3.05
2022-09-10T10:40:09.301Z,2.05
2022-09-10T10:42:41.683Z,2.60
2022-09-10T10:45:28.355Z,2.28
2022-09-10T10:48:04.011Z,2.20
2022-09-10T10:50:38.116Z,1.75
2022-09-10T10:53:19.370Z,2.80
2022-09-10T10:55:53.308Z,2.05
2022-09-10T10:58:40.002Z,2.13
2022-09-10T11:01:14.738Z,1.87
2022-09-10T11:03:48.731Z,2.25
2022-09-10T11:06:20.929Z,2.85
2022-09-10T11:08:55.046Z,1.90
2022-09-10T11:11:29.043Z,1.75
2022-09-10T11:14:02.259Z,1.63
2022-09-10T11:16:40.308Z,1.83
2022-09-10T11:19:17.029Z,2.20
2022-09-10T11:21:52.161Z,2.00
2022-09-10T11:24:24.246Z,2.47
2022-09-10T11:26:56.948Z,2.00
2022-09-10T11:29:34.813Z,2.05
2022-09-10T11:32:07.975Z,2.35
2022-09-10T11:34:43.351Z,2.63
2022-09-10T11:37:17.732Z,2.75
2022-09-10T11:39:50.059Z,2.83
2022-09-10T11:42:23.158Z,2.17
2022-09-10T11:44:59.096Z,2.88
2022-09-10T11:47:33.094Z,2.55
2022-09-10T11:50:04.323Z,2.67
2022-09-10T11:52:33.578Z,2.10
2022-09-10T11:55:03.711Z,2.53
2022-09-10T11:57:40.790Z,2.80
2022-09-10T12:00:15.853Z,3.20
2022-09-10T12:03:20.153Z,2.30
2022-09-10T12:05:57.124Z,2.70
2022-09-10T12:08:38.251Z,2.40
2022-09-10T12:11:16.147Z,2.45
2022-09-10T12:13:45.512Z,2.00
2022-09-10T12:16:21.890Z,2.85
2022-09-10T12:18:52.193Z,2.37
2022-09-10T12:21:29.295Z,2.45
2022-09-10T12:23:58.119Z,2.90
2022-09-10T12:26:27.156Z,3.28
2022-09-10T12:29:01.480Z,2.63
2022-09-10T12:31:28.970Z,1.90
2022-09-10T12:34:17.017Z,2.60
2022-09-10T12:37:24.449Z,2.15
2022-09-10T12:40:25.541Z,2.00
2022-09-10T12:42:58.718Z,1.95
2022-09-10T12:46:01.602Z,2.20
2022-09-10T12:48:29.706Z,2.22
2022-09-10T12:51:00.421Z,2.38
2022-09-10T12:54:07.435Z,1.88
2022-09-10T12:56:50.775Z,1.83
2022-09-10T12:59:55.095Z,2.23
2022-09-10T13:02:30.215Z,1.63
2022-09-10T13:05:01.033Z,1.52
2022-09-10T13:07:35.655Z,1.58
2022-09-10T13:10:08.085Z,1.77
2022-09-10T13:12:37.504Z,1.60
2022-09-10T13:15:07.861Z,1.92
2022-09-10T13:17:41.100Z,2.20
2022-09-10T13:20:29.113Z,1.77
2022-09-10T13:22:58.792Z,1.77
2022-09-10T13:25:34.771Z,1.70
2022-09-10T13:28:02.680Z,1.67
2022-09-10T13:30:31.982Z,2.03
2022-09-10T13:33:01.940Z,1.80
2022-09-10T13:35:59.114Z,2.28
2022-09-10T13:38:47.660Z,2.17
2022-09-10T13:41:59.896Z,2.25
2022-09-10T13:44:55.856Z,2.40
2022-09-10T13:47:29.802Z,2.35
2022-09-10T13:50:01.932Z,2.80
2022-09-10T13:52:34.617Z,2.43
2022-09-10T13:55:04.220Z,2.65
2022-09-10T13:57:35.449Z,2.60
2022-09-10T14:00:08.093Z,2.45
2022-09-10T14:02:44.732Z,2.30
2022-09-10T14:05:27.187Z,2.60
2022-09-10T14:07:57.035Z,2.20
2022-09-10T14:10:24.998Z,2.55
2022-09-10T14:12:54.189Z,2.40
2022-09-10T14:15:25.687Z,3.20
2022-09-10T14:17:59.196Z,2.07
2022-09-10T14:20:29.559Z,2.40
2022-09-10T14:23:00.721Z,2.28
2022-09-10T14:25:31.385Z,1.85
2022-09-10T14:28:25.807Z,2.15
2022-09-10T14:31:18.836Z,2.10
2022-09-10T14:33:47.720Z,2.30
2022-09-10T14:36:17.806Z,2.15
2022-09-10T14:38:54.301Z,2.80
2022-09-10T14:41:24.699Z,2.20
2022-09-10T14:44:16.790Z,2.40
2022-09-10T14:46:50.072Z,2.10
2022-09-10T14:49:20.551Z,2.30
2022-09-10T14:51:48.033Z,2.40
2022-09-10T14:54:15.499Z,2.25
2022-09-10T14:56:45.000Z,2.40
2022-09-10T14:59:16.731Z,2.47
2022-09-10T15:01:46.443Z,2.88
2022-09-10T15:04:15.799Z,2.70
2022-09-10T15:06:45.017Z,3.30
2022-09-10T15:09:13.630Z,3.93
2022-09-10T15:11:52.038Z,2.78
2022-09-10T15:14:19.999Z,3.25
2022-09-10T15:16:47.936Z,2.83
2022-09-10T15:19:15.318Z,2.60
2022-09-10T15:21:44.119Z,3.50
2022-09-10T15:24:14.903Z,3.15
2022-09-10T15:26:42.377Z,3.38
2022-09-10T15:29:10.040Z,3.20
2022-09-10T15:31:38.258Z,3.25
2022-09-10T15:34:07.980Z,3.00
2022-09-10T15:36:36.967Z,3.00
2022-09-10T15:39:06.839Z,4.03
2022-09-10T15:41:35.029Z,2.72
2022-09-10T15:44:03.895Z,4.00
2022-09-10T15:46:31.327Z,2.50
2022-09-10T15:48:59.345Z,2.95
2022-09-10T15:51:27.066Z,2.72
2022-09-10T15:53:55.143Z,2.33
2022-09-10T15:56:25.916Z,2.42
2022-09-10T15:58:56.551Z,2.43
2022-09-10T16:01:25.395Z,1.92
2022-09-10T16:03:55.230Z,3.25
2022-09-10T16:06:25.119Z,3.10
2022-09-10T16:08:56.505Z,2.83
2022-09-10T16:11:26.183Z,3.17
2022-09-10T16:13:53.818Z,3.33
2022-09-10T16:16:23.709Z,3.15
2022-09-10T16:18:51.674Z,2.90
2022-09-10T16:21:22.226Z,3.55
2022-09-10T16:23:52.196Z,3.83
2022-09-10T16:26:21.885Z,3.22
2022-09-10T16:28:51.399Z,2.83
2022-09-10T16:31:20.939Z,3.30
2022-09-10T16:33:52.806Z,3.22
2022-09-10T16:36:22.200Z,2.70
2022-09-10T16:38:53.723Z,2.65
2022-09-10T16:41:22.160Z,3.33
2022-09-10T16:43:51.503Z,2.90
2022-09-10T16:46:19.332Z,2.70
2022-09-10T16:48:47.029Z,2.83
2022-09-10T16:51:16.524Z,2.97
2022-09-10T16:53:45.899Z,3.50
2022-09-10T16:56:15.745Z,2.55
2022-09-10T16:58:48.123Z,3.85
2022-09-10T17:01:17.334Z,3.70
2022-09-10T17:03:46.184Z,3.53
2022-09-10T17:06:15.540Z,2.72
2022-09-10T17:08:45.073Z,2.40
2022-09-10T17:11:12.912Z,3.20
2022-09-10T17:13:40.326Z,2.57
2022-09-10T17:16:23.212Z,2.38
2022-09-10T17:18:56.110Z,2.53
2022-09-10T17:21:23.558Z,2.63
2022-09-10T17:23:50.963Z,2.13
2022-09-10T17:26:18.744Z,2.53
2022-09-10T17:28:53.211Z,2.15
2022-09-10T17:31:22.164Z,2.00
2022-09-10T17:33:49.912Z,2.03
2022-09-10T17:36:17.585Z,2.25
2022-09-10T17:38:45.854Z,2.17
2022-09-10T17:41:14.442Z,1.73
2022-09-10T17:43:43.777Z,1.90
2022-09-10T17:46:14.744Z,2.00
2022-09-10T17:48:45.626Z,2.22
2022-09-10T17:51:14.512Z,2.30
2022-09-10T17:53:43.296Z,2.70
2022-09-10T17:56:12.211Z,2.47
2022-09-10T17:58:40.020Z,3.00
2022-09-10T18:01:10.078Z,2.60
2022-09-10T18:03:37.896Z,2.30
2022-09-10T18:06:08.703Z,2.15
2022-09-10T18:08:36.811Z,2.65
2022-09-10T18:11:05.692Z,2.80
2022-09-10T18:13:34.011Z,2.60
2022-09-10T18:16:06.307Z,3.30
2022-09-10T18:18:34.834Z,2.72
2022-09-10T18:21:13.735Z,3.50
2022-09-10T18:23:43.538Z,2.92
2022-09-10T18:26:13.016Z,3.28
2022-09-10T18:28:40.454Z,3.00
2022-09-10T18:31:08.014Z,3.55
2022-09-10T18:33:38.237Z,3.92
2022-09-10T18:36:13.638Z,2.90
2022-09-10T18:38:42.059Z,3.55
2022-09-10T18:41:21.784Z,3.73
2022-09-10T18:43:50.793Z,3.70
2022-09-10T18:46:19.887Z,3.60
2022-09-10T18:48:48.357Z,3.63
2022-09-10T18:51:20.343Z,4.13
2022-09-10T18:53:49.539Z,4.07
2022-09-10T18:56:19.256Z,3.75
2022-09-10T18:58:49.905Z,3.78
2022-09-10T19:01:18.853Z,4.00
2022-09-10T19:03:48.291Z,4.07
2022-09-10T19:06:19.055Z,3.60
2022-09-10T19:08:52.497Z,3.80
2022-09-10T19:11:21.217Z,3.30
2022-09-10T19:13:49.894Z,4.00
2022-09-10T19:16:18.334Z,4.20
2022-09-10T19:18:50.615Z,4.83
2022-09-10T19:21:20.096Z,3.95
2022-09-10T19:23:49.102Z,4.43
2022-09-10T19:26:17.671Z,3.83
2022-09-10T19:28:45.636Z,4.72
2022-09-10T19:31:15.065Z,4.90
2022-09-10T19:33:42.803Z,4.82
2022-09-10T19:36:12.373Z,5.20
2022-09-10T19:38:42.206Z,5.05
2022-09-10T19:41:12.077Z,5.00
2022-09-10T19:43:40.372Z,5.13
2022-09-10T19:46:11.062Z,5.13
2022-09-10T19:48:38.749Z,5.32
2022-09-10T19:51:07.774Z,4.85
2022-09-10T19:53:35.340Z,4.88
2022-09-10T19:56:08.997Z,5.33
2022-09-10T19:58:37.427Z,5.50
2022-09-10T20:01:09.328Z,6.50
2022-09-10T20:03:37.592Z,4.82
2022-09-10T20:06:05.544Z,6.07
2022-09-10T20:08:34.662Z,4.90
2022-09-10T20:11:05.838Z,4.97
2022-09-10T20:13:34.992Z,6.22
2022-09-10T20:16:03.188Z,5.38
2022-09-10T20:18:31.943Z,5.90
2022-09-10T20:21:11.586Z,6.03
2022-09-10T20:23:39.382Z,6.68
2022-09-10T20:26:11.976Z,6.05
2022-09-10T20:28:41.129Z,6.68
2022-09-10T20:31:10.675Z,5.10
2022-09-10T20:33:39.090Z,6.03
2022-09-10T20:36:11.439Z,7.10
2022-09-10T20:38:38.981Z,6.78
2022-09-10T20:41:07.428Z,6.90
2022-09-10T20:43:35.396Z,7.03
2022-09-10T20:46:05.048Z,6.57
2022-09-10T20:48:33.082Z,7.15
2022-09-10T20:51:01.541Z,7.88
2022-09-10T20:53:28.985Z,7.70
2022-09-10T20:56:03.723Z,6.95
2022-09-10T20:58:32.343Z,7.53
2022-09-10T21:01:07.858Z,8.70
2022-09-10T21:03:35.285Z,8.30
2022-09-10T21:06:03.168Z,7.55
2022-09-10T21:08:31.467Z,8.70
2022-09-10T21:11:04.818Z,9.50
2022-09-10T21:13:34.106Z,8.20
2022-09-10T21:16:09.166Z,8.93
2022-09-10T21:18:36.716Z,8.13
2022-09-10T21:21:08.094Z,8.82
2022-09-10T21:23:36.549Z,8.43
2022-09-10T21:26:05.024Z,9.07
2022-09-10T21:28:32.461Z,9.45
2022-09-10T21:31:03.022Z,8.05
2022-09-10T21:33:31.852Z,9.43
2022-09-10T21:36:03.074Z,8.40
2022-09-10T21:38:30.984Z,8.30
2022-09-10T21:40:59.285Z,7.97
2022-09-10T21:43:27.445Z,8.38
2022-09-10T21:45:55.362Z,8.75
2022-09-10T21:48:23.218Z,7.73
2022-09-10T21:51:00.259Z,8.23
2022-09-10T21:53:28.219Z,8.15
2022-09-10T21:55:55.987Z,8.07
2022-09-10T21:58:24.138Z,8.20
2022-09-10T22:00:51.631Z,8.33
2022-09-10T22:03:19.907Z,8.23
2022-09-10T22:05:47.535Z,7.95
2022-09-10T22:08:16.330Z,7.85
2022-09-10T22:10:43.848Z,8.25
2022-09-10T22:13:11.687Z,8.00
2022-09-10T22:15:40.302Z,7.65
2022-09-10T22:18:08.274Z,8.80
2022-09-10T22:20:35.930Z,9.05
2022-09-10T22:23:04.086Z,9.45
2022-09-10T22:25:33.251Z,9.47
2022-09-10T22:28:00.648Z,9.98
2022-09-10T22:30:28.881Z,9.50
2022-09-10T22:32:57.168Z,9.57
2022-09-10T22:35:25.548Z,9.98
2022-09-10T22:37:55.892Z,10.33
2022-09-10T22:40:23.942Z,9.98
2022-09-10T22:42:53.724Z,11.95
2022-09-10T22:45:21.126Z,10.68
2022-09-10T22:47:48.929Z,10.32
2022-09-10T22:50:16.515Z,9.87
2022-09-10T22:52:45.679Z,10.40
2022-09-10T22:55:14.170Z,10.43
2022-09-10T22:57:41.826Z,10.77
2022-09-10T23:00:13.283Z,11.40
2022-09-10T23:02:40.785Z,10.67
2022-09-10T23:05:08.800Z,10.77
2022-09-10T23:07:36.332Z,10.98
2022-09-10T23:10:04.085Z,10.82
2022-09-10T23:12:31.533Z,11.02
2022-09-10T23:14:59.000Z,11.03
2022-09-10T23:17:27.790Z,11.18
2022-09-10T23:19:55.444Z,9.77
2022-09-10T23:22:22.957Z,9.43
2022-09-10T23:24:50.378Z,9.82
2022-09-10T23:27:17.790Z,10.10
2022-09-10T23:29:45.221Z,10.40
2022-09-10T23:32:12.656Z,9.82
2022-09-10T23:34:41.522Z,10.63
2022-09-10T23:37:09.908Z,10.02
2022-09-10T23:39:37.722Z,9.90
2022-09-10T23:42:05.916Z,10.57
2022-09-10T23:44:33.920Z,10.80
2022-09-10T23:47:01.493Z,11.68
2022-09-10T23:49:29.034Z,10.23
2022-09-10T23:51:57.803Z,11.53
2022-09-10T23:54:25.385Z,10.35
2022-09-10T23:56:52.840Z,11.23
2022-09-10T23:59:20.294Z,11.75
